Time;durP1;ratioP1;P1;durP2;ratioP2;P2;SDS_P1;SDS_P2;PMS_P1;PMS_P2;Temp;Humidity;BMP_temperature;BMP_pressure;BME280_temperature;BME280_humidity;BME280_pressure;Samples;Min_cycle;Max_cycle;Signal;HPM_P1;HPM_P2
2023/10/17 00:01:47;;;;;;;5.75;4.70;;;;;;;21.23;44.71;102268.22;5019283;28;20044;-66
2023/10/17 00:06:58;;;;;;;5.80;4.30;;;;;;;21.23;44.73;102262.09;5027274;28;20049;-66
2023/10/17 00:09:26;;;;;;;6.10;3.92;;;;;;;21.23;44.64;102257.63;4995650;28;20037;-66
2023/10/17 00:14:23;;;;;;;5.85;4.00;;;;;;;21.23;44.64;102254.16;5001699;28;20052;-66
2023/10/17 00:16:55;;;;;;;6.60;4.25;;;;;;;21.21;44.59;102249.03;5021654;28;20493;-67
2023/10/17 00:19:26;;;;;;;6.05;4.47;;;;;;;21.21;44.80;102245.53;4977303;28;20047;-67
2023/10/17 00:21:53;;;;;;;5.38;3.88;;;;;;;21.16;44.57;102235.38;5003098;28;20069;-67
2023/10/17 00:24:23;;;;;;;5.70;4.38;;;;;;;21.24;44.58;102245.22;5000816;28;20065;-67
2023/10/17 00:26:48;;;;;;;6.22;4.05;;;;;;;21.21;44.77;102249.03;4971922;28;21543;-66
2023/10/17 00:29:14;;;;;;;5.50;4.25;;;;;;;21.21;44.47;102235.78;5019319;28;20120;-66
2023/10/17 00:31:40;;;;;;;5.90;4.03;;;;;;;21.19;44.74;102243.03;4975181;28;20136;-66
2023/10/17 00:34:16;;;;;;;5.68;4.25;;;;;;;21.20;44.77;102236.75;5005428;28;20045;-66
2023/10/17 00:36:49;;;;;;;5.55;3.90;;;;;;;21.21;44.76;102240.25;4970452;28;20041;-66
2023/10/17 00:39:31;;;;;;;6.60;4.22;;;;;;;21.18;44.61;102245.81;5004961;28;20029;-66
2023/10/17 00:44:38;;;;;;;5.50;3.95;;;;;;;21.21;44.50;102253.47;5039805;28;20553;-66
2023/10/17 00:47:05;;;;;;;5.95;4.07;;;;;;;21.20;44.53;102260.59;5023907;28;20037;-66
2023/10/17 00:49:40;;;;;;;5.28;4.03;;;;;;;21.15;44.74;102249.63;4992540;28;20044;-66
2023/10/17 00:52:18;;;;;;;5.43;3.95;;;;;;;21.16;44.41;102250.44;5030583;28;20486;-65
2023/10/17 00:54:45;;;;;;;5.35;4.18;;;;;;;21.07;44.81;102239.81;4997191;28;20099;-67
2023/10/17 00:57:14;;;;;;;5.65;4.20;;;;;;;21.14;44.72;102250.59;5026671;28;21698;-67
2023/10/17 00:59:49;;;;;;;5.63;3.83;;;;;;;21.16;44.64;102248.63;5010611;28;20128;-66
2023/10/17 01:02:15;;;;;;;5.80;3.80;;;;;;;21.09;44.54;102242.28;5032788;28;20144;-67
2023/10/17 01:04:44;;;;;;;4.95;3.72;;;;;;;21.14;44.71;102247.94;4982621;28;20107;-66
2023/10/17 01:07:23;;;;;;;6.18;4.18;;;;;;;21.17;44.64;102238.84;5012487;28;20123;-67
2023/10/17 01:09:55;;;;;;;6.15;3.55;;;;;;;21.16;44.71;102234.53;5028989;28;20864;-67
2023/10/17 01:12:26;;;;;;;5.18;3.60;;;;;;;21.14;44.51;102232.06;5025302;28;20060;-67
2023/10/17 01:14:52;;;;;;;6.10;4.20;;;;;;;21.12;44.73;102224.28;5001463;28;20053;-65
2023/10/17 01:17:23;;;;;;;5.40;3.50;;;;;;;21.13;44.51;102230.41;5028825;28;20399;-67
2023/10/17 01:20:02;;;;;;;5.85;3.58;;;;;;;21.13;44.44;102230.41;4987047;28;21521;-66
2023/10/17 01:22:32;;;;;;;5.10;3.70;;;;;;;21.13;44.56;102227.75;5012229;28;20147;-66
2023/10/17 01:24:57;;;;;;;5.32;3.70;;;;;;;21.13;44.83;102233.88;5018679;28;20113;-66
2023/10/17 01:27:23;;;;;;;6.38;3.72;;;;;;;21.12;44.66;102218.97;5013209;28;20556;-66
2023/10/17 01:29:49;;;;;;;5.10;3.28;;;;;;;21.13;44.57;102228.56;4996061;28;20041;-66
2023/10/17 01:32:15;;;;;;;5.28;3.42;;;;;;;21.12;44.64;102226.91;5016697;28;20041;-66
2023/10/17 01:34:41;;;;;;;5.45;3.42;;;;;;;21.10;44.81;102230.72;5024859;28;20049;-67
2023/10/17 01:37:10;;;;;;;5.13;3.13;;;;;;;21.10;44.68;102226.25;4994336;28;20041;-66
2023/10/17 01:39:37;;;;;;;5.18;3.80;;;;;;;21.13;44.36;102230.41;5022312;28;20120;-67
2023/10/17 01:42:05;;;;;;;4.70;3.40;;;;;;;21.12;44.71;102228.72;4998928;28;20148;-65
2023/10/17 01:44:30;;;;;;;4.25;3.10;;;;;;;21.13;44.43;102225.09;5029984;28;20049;-67
2023/10/17 01:46:58;;;;;;;6.38;3.85;;;;;;;21.12;44.73;102228.72;4991255;28;20044;-66
2023/10/17 01:49:27;;;;;;;4.13;3.15;;;;;;;21.12;44.66;102218.13;5016723;28;20033;-66
2023/10/17 01:51:53;;;;;;;4.00;3.20;;;;;;;21.12;44.66;102212.84;5023133;28;20119;-67
2023/10/17 01:54:19;;;;;;;4.97;3.40;;;;;;;21.08;44.61;102207.03;4989112;28;20079;-66
2023/10/17 01:56:49;;;;;;;5.03;3.33;;;;;;;21.10;44.56;102210.34;5022631;28;20048;-66
2023/10/17 01:59:25;;;;;;;5.50;3.47;;;;;;;21.06;44.53;102208.19;4984649;28;20108;-66
2023/10/17 02:01:52;;;;;;;4.60;3.17;;;;;;;21.09;44.36;102214.00;5032645;28;20044;-67
2023/10/17 02:04:22;;;;;;;4.38;3.22;;;;;;;21.08;44.40;102212.31;4977420;28;20518;-66
2023/10/17 02:06:47;;;;;;;4.18;3.22;;;;;;;21.08;44.39;102207.03;5025151;28;20143;-66
2023/10/17 02:11:55;;;;;;;5.45;3.50;;;;;;;21.06;44.67;102200.22;5022782;28;20079;-67
2023/10/17 02:14:25;;;;;;;4.35;3.08;;;;;;;21.02;44.40;102194.41;5021598;28;20388;-65
2023/10/17 02:16:51;;;;;;;4.85;3.55;;;;;;;21.04;44.54;102203.03;5023774;28;20056;-67
2023/10/17 02:19:20;;;;;;;3.83;3.20;;;;;;;21.08;44.67;102203.56;4994861;28;20053;-66
2023/10/17 02:21:50;;;;;;;5.15;3.13;;;;;;;21.07;44.45;102210.66;5034873;28;20179;-66
2023/10/17 02:24:22;;;;;;;4.50;3.20;;;;;;;21.07;44.64;102205.38;4989173;28;20045;-66
2023/10/17 02:26:56;;;;;;;4.53;3.42;;;;;;;21.07;44.38;102209.84;5029153;28;20076;-66
2023/10/17 02:29:25;;;;;;;4.97;3.33;;;;;;;21.06;44.41;102210.81;4986934;28;20045;-67
2023/10/17 02:31:54;;;;;;;3.95;3.00;;;;;;;21.02;44.58;102202.34;5019112;28;20038;-66
2023/10/17 02:34:23;;;;;;;5.63;2.97;;;;;;;21.05;44.47;102202.03;5021758;28;20037;-66
2023/10/17 02:36:50;;;;;;;4.47;2.95;;;;;;;21.00;44.29;102199.00;4993959;28;20038;-67
2023/10/17 02:39:16;;;;;;;4.10;3.05;;;;;;;21.04;44.50;102203.03;5022976;28;20049;-66
2023/10/17 02:41:46;;;;;;;4.15;3.20;;;;;;;21.02;44.48;102204.19;4988957;28;20128;-66
2023/10/17 02:44:18;;;;;;;4.25;3.15;;;;;;;21.04;44.33;102208.34;5035060;28;20042;-67
2023/10/17 02:46:44;;;;;;;4.40;3.03;;;;;;;21.03;44.36;102208.50;4991587;28;20545;-65
2023/10/17 02:49:13;;;;;;;4.15;2.90;;;;;;;21.05;44.46;102225.88;5020656;28;20021;-65
2023/10/17 02:51:43;;;;;;;4.10;3.00;;;;;;;21.03;44.55;102221.72;4996265;28;20041;-67
2023/10/17 02:54:16;;;;;;;4.38;2.80;;;;;;;21.05;44.38;102214.47;5021236;28;20050;-66
2023/10/17 02:56:51;;;;;;;4.45;3.08;;;;;;;21.03;44.88;102224.38;5011226;28;20029;-67
2023/10/17 02:59:33;;;;;;;3.50;2.80;;;;;;;21.02;44.42;102214.78;5027532;28;20079;-67
2023/10/17 03:01:58;;;;;;;3.45;2.65;;;;;;;21.03;44.42;102211.13;4995053;28;20041;-66
2023/10/17 03:04:24;;;;;;;3.38;2.80;;;;;;;21.02;44.29;102223.53;5020307;28;20025;-67
2023/10/17 03:06:58;;;;;;;4.30;2.97;;;;;;;21.02;44.49;102215.59;4985609;28;20502;-66
2023/10/17 03:17:19;;;;;;;3.20;2.60;;;;;;;21.00;44.41;102209.59;4992177;28;20537;-67
2023/10/17 03:19:44;;;;;;;3.72;2.80;;;;;;;20.99;44.43;102218.53;5021741;28;20446;-66
2023/10/17 03:22:16;;;;;;;4.85;2.90;;;;;;;20.99;44.37;102215.06;4990213;28;20049;-67
2023/10/17 03:24:44;;;;;;;2.90;2.40;;;;;;;20.99;44.52;102215.88;5045790;28;20149;-67
2023/10/17 03:27:23;;;;;;;3.63;2.77;;;;;;;20.97;44.46;102211.72;4993732;28;20319;-65
2023/10/17 03:29:49;;;;;;;3.67;2.78;;;;;;;20.99;44.17;102217.69;5019628;28;20037;-67
2023/10/17 03:32:16;;;;;;;3.90;2.88;;;;;;;20.97;44.45;102206.44;4973531;28;20437;-67
2023/10/17 03:34:45;;;;;;;3.20;2.60;;;;;;;20.97;44.22;102223.16;5021109;28;20064;-66
2023/10/17 03:40:19;;;;;;;4.03;3.05;;;;;;;20.97;44.12;102224.97;4989684;28;20045;-66
2023/10/17 03:42:53;;;;;;;4.85;3.05;;;;;;;20.96;44.33;102218.00;5026791;28;20029;-66
2023/10/17 03:47:57;;;;;;;4.22;2.60;;;;;;;20.91;44.41;102220.31;5025427;28;20461;-67
2023/10/17 03:53:29;;;;;;;4.88;3.03;;;;;;;20.92;44.17;102222.78;5030128;28;20087;-67
2023/10/17 03:55:55;;;;;;;4.20;2.88;;;;;;;20.94;44.27;102215.53;5009512;28;20128;-67
2023/10/17 04:00:54;;;;;;;5.07;3.40;;;;;;;20.92;44.27;102222.78;5025950;28;20050;-67
2023/10/17 04:03:23;;;;;;;3.42;2.60;;;;;;;20.91;44.31;102215.00;4991285;28;20180;-67
2023/10/17 04:05:51;;;;;;;4.35;3.13;;;;;;;20.89;44.18;102209.88;5030938;28;20059;-67
2023/10/17 04:08:26;;;;;;;4.47;2.80;;;;;;;20.94;44.24;102222.63;4997623;28;20042;-67
2023/10/17 04:11:07;;;;;;;3.25;2.60;;;;;;;20.91;44.05;102220.31;5018405;28;20033;-66
2023/10/17 04:13:37;;;;;;;4.97;3.10;;;;;;;20.91;44.12;102217.66;4994883;28;20758;-66
2023/10/17 04:16:10;;;;;;;4.35;2.85;;;;;;;20.91;44.13;102215.84;5053381;28;20065;-66
2023/10/17 04:18:38;;;;;;;4.07;2.75;;;;;;;20.90;44.34;102218.63;4987676;28;20048;-66
2023/10/17 04:24:06;;;;;;;4.22;2.90;;;;;;;20.89;44.00;102227.56;4984140;28;20045;-66
2023/10/17 04:27:06;;;;;;;4.28;2.50;;;;;;;20.87;44.22;102230.38;5019876;28;20041;-67
2023/10/17 04:29:29;;;;;;;3.13;2.58;;;;;;;20.87;44.27;102225.06;4995281;28;20058;-67
2023/10/17 04:31:57;;;;;;;4.40;2.80;;;;;;;20.88;44.10;102223.25;5027624;28;20068;-67
2023/10/17 04:34:26;;;;;;;3.00;2.50;;;;;;;20.86;44.30;102219.94;5000213;28;20041;-66
2023/10/17 04:36:53;;;;;;;3.63;2.80;;;;;;;20.88;44.29;102218.78;5037454;28;20044;-66
2023/10/17 04:39:25;;;;;;;4.32;2.47;;;;;;;20.89;44.33;102224.91;5030971;28;20046;-67
2023/10/17 04:44:36;;;;;;;4.85;2.75;;;;;;;20.88;44.20;102212.66;5031849;28;20156;-66
2023/10/17 04:49:32;;;;;;;3.78;2.70;;;;;;;20.87;44.02;102218.94;5021921;28;20033;-67
2023/10/17 04:54:39;;;;;;;3.33;2.55;;;;;;;20.86;44.27;102214.63;5018745;28;20054;-67
2023/10/17 04:57:09;;;;;;;3.60;2.70;;;;;;;20.83;44.23;102209.66;5018072;28;20164;-66
2023/10/17 06:19:15;;;;;;;3.17;2.30;;;;;;;20.84;44.14;102245.72;5011640;28;20059;-67
2023/10/17 06:26:59;;;;;;;3.38;2.65;;;;;;;20.78;44.49;102244.50;5020076;28;20181;-67
2023/10/17 06:34:38;;;;;;;3.47;2.63;;;;;;;20.88;44.26;102258.50;4991772;28;20091;-66
2023/10/17 06:37:11;;;;;;;2.88;2.47;;;;;;;20.83;44.19;102246.72;5013056;28;20593;-66
2023/10/17 06:39:49;;;;;;;2.97;2.30;;;;;;;20.86;44.51;102254.34;5028910;28;20076;-66
2023/10/17 06:42:17;;;;;;;2.97;2.25;;;;;;;20.88;44.31;102255.03;4993272;28;20124;-66
2023/10/17 06:45:01;;;;;;;3.17;2.35;;;;;;;20.83;44.19;102249.38;5014559;28;20063;-66
2023/10/17 06:47:41;;;;;;;3.20;2.42;;;;;;;20.89;44.44;102254.03;4993210;28;20041;-66
2023/10/17 06:52:40;;;;;;;2.63;2.40;;;;;;;20.90;44.48;102247.75;4996580;28;20064;-67
2023/10/17 06:55:08;;;;;;;3.15;2.30;;;;;;;20.89;44.48;102254.88;5013946;28;20045;-66
2023/10/17 06:57:36;;;;;;;3.03;2.42;;;;;;;20.85;44.30;102248.22;5020959;28;20052;-67
2023/10/17 07:02:49;;;;;;;2.95;2.30;;;;;;;20.90;44.38;102247.75;5021624;28;20042;-67
2023/10/17 07:05:21;;;;;;;2.72;2.03;;;;;;;20.98;44.22;102259.25;4994390;28;20488;-66
2023/10/17 07:07:52;;;;;;;3.20;2.20;;;;;;;21.30;43.75;102264.00;5018920;28;20479;-67
2023/10/17 07:10:50;;;;;;;2.97;2.10;;;;;;;22.03;42.44;102263.56;4996507;28;20076;-67
2023/10/17 07:13:48;;;;;;;2.65;2.00;;;;;;;22.60;41.05;102247.84;5026349;28;20203;-66
2023/10/17 07:16:16;;;;;;;2.60;2.00;;;;;;;22.62;41.05;102259.13;5030880;28;20092;-67
2023/10/17 07:18:47;;;;;;;2.30;2.00;;;;;;;22.42;41.28;102247.97;5012286;28;20053;-67
2023/10/17 07:23:48;;;;;;;3.20;2.20;;;;;;;22.33;41.77;102261.41;5007278;28;20033;-66
2023/10/17 07:26:24;;;;;;;3.28;2.25;;;;;;;22.18;42.08;102254.06;5024479;28;20034;-66
2023/10/17 07:28:52;;;;;;;2.67;1.92;;;;;;;22.16;42.80;102255.22;4991890;28;21428;-66
2023/10/17 07:31:25;;;;;;;2.40;2.00;;;;;;;22.01;42.64;102261.09;5029895;28;20646;-65
2023/10/17 07:36:36;;;;;;;3.00;1.75;;;;;;;21.75;43.22;102254.19;5020120;28;20037;-65
2023/10/17 07:39:09;;;;;;;2.83;2.53;;;;;;;21.80;43.37;102262.50;5020427;28;20041;-66
2023/10/17 07:41:37;;;;;;;5.05;2.17;;;;;;;21.77;43.68;102262.81;5010991;28;20041;-66
2023/10/17 07:44:19;;;;;;;3.50;2.20;;;;;;;21.69;43.82;102245.84;5026311;28;20112;-66
2023/10/17 07:47:08;;;;;;;2.75;1.90;;;;;;;21.68;43.86;102251.31;4993604;28;20447;-66
2023/10/17 07:49:41;;;;;;;3.00;2.00;;;;;;;21.69;43.85;102256.47;5024930;28;20033;-67
2023/10/17 07:52:12;;;;;;;3.15;1.98;;;;;;;21.63;43.69;102262.41;4992884;28;20599;-65
2023/10/17 07:54:45;;;;;;;3.13;2.00;;;;;;;21.62;43.92;102268.69;5010712;28;20091;-65
2023/10/17 07:57:17;;;;;;;2.22;2.00;;;;;;;21.63;43.89;102277.47;5013710;28;20555;-68
2023/10/17 07:59:52;;;;;;;2.92;2.00;;;;;;;21.60;43.83;102270.66;5016921;28;20037;-66
2023/10/17 08:02:20;;;;;;;2.55;2.05;;;;;;;21.57;43.96;102262.19;4997671;28;20087;-66
2023/10/17 08:04:49;;;;;;;3.53;1.90;;;;;;;21.58;44.07;102267.34;5023313;28;20049;-66
2023/10/17 08:07:16;;;;;;;2.72;1.95;;;;;;;21.55;43.91;102254.41;4993422;28;20155;-66
2023/10/17 08:09:50;;;;;;;2.28;1.83;;;;;;;21.58;43.85;102259.41;5027897;28;20117;-66
2023/10/17 08:12:22;;;;;;;2.55;1.65;;;;;;;21.57;43.76;102255.09;4995108;28;20065;-66
2023/10/17 08:15:05;;;;;;;2.00;1.77;;;;;;;21.57;43.83;102257.72;5027983;28;20037;-66
2023/10/17 08:17:34;;;;;;;2.85;2.05;;;;;;;21.57;43.89;102252.44;4990006;28;20065;-66
2023/10/17 08:20:08;;;;;;;2.90;2.03;;;;;;;21.57;44.21;102249.78;5019492;28;20412;-66
2023/10/17 08:25:29;;;;;;;2.67;2.10;;;;;;;21.55;44.16;102251.75;5022053;28;20041;-66
2023/10/17 08:27:56;;;;;;;2.83;1.65;;;;;;;21.59;44.20;102249.63;4988864;28;20053;-66
2023/10/17 08:30:27;;;;;;;3.05;2.10;;;;;;;21.57;44.11;102251.59;5019861;28;20491;-66
2023/10/17 08:35:40;;;;;;;4.07;1.85;;;;;;;21.61;44.18;102242.34;5027067;28;20084;-65
2023/10/17 08:38:06;;;;;;;3.42;2.33;;;;;;;21.66;44.41;102253.28;4981247;28;20365;-66
2023/10/17 08:43:06;;;;;;;1.88;1.63;;;;;;;21.66;44.43;102250.66;4984340;28;21003;-66
2023/10/17 08:45:37;;;;;;;2.80;1.90;;;;;;;21.69;44.38;102250.31;5029886;28;20045;-66
2023/10/17 08:48:05;;;;;;;3.15;1.70;;;;;;;21.65;44.32;102255.13;4992496;28;20562;-65
2023/10/17 08:50:38;;;;;;;2.33;1.77;;;;;;;21.56;44.49;102228.72;5021082;28;20025;-66
2023/10/17 08:53:20;;;;;;;5.00;1.77;;;;;;;21.70;44.13;102242.22;4987672;28;20087;-65
2023/10/17 08:55:48;;;;;;;2.45;1.80;;;;;;;21.71;44.15;102241.22;5024530;28;20053;-66
2023/10/17 08:58:17;;;;;;;2.28;1.80;;;;;;;21.70;44.44;102228.94;4987838;28;21678;-66
2023/10/17 09:03:35;;;;;;;1.90;1.70;;;;;;;21.74;43.97;102237.44;5017548;28;20476;-65
2023/10/17 09:06:10;;;;;;;1.95;1.70;;;;;;;21.75;44.27;102244.41;4994120;28;20045;-65
2023/10/17 09:11:08;;;;;;;2.05;1.67;;;;;;;21.77;44.48;102241.59;4986613;28;20045;-66
2023/10/17 09:14:11;;;;;;;2.38;1.85;;;;;;;21.72;44.40;102231.44;5020720;28;20040;-66
2023/10/17 09:16:34;;;;;;;1.80;1.50;;;;;;;21.79;44.32;102237.78;4987031;28;20045;-66
2023/10/17 09:19:09;;;;;;;3.38;1.83;;;;;;;21.79;44.38;102239.63;5023321;28;20126;-66
2023/10/17 09:21:35;;;;;;;1.45;1.35;;;;;;;21.77;44.14;102234.47;4991007;28;20776;-66
2023/10/17 09:24:00;;;;;;;2.75;1.90;;;;;;;21.81;44.37;102241.13;5014198;28;20034;-65
2023/10/17 09:26:26;;;;;;;1.83;1.50;;;;;;;21.82;44.18;102240.13;5012404;28;20045;-66
2023/10/17 09:29:00;;;;;;;2.22;1.75;;;;;;;21.79;44.43;102237.78;5000727;28;20144;-65
2023/10/17 09:31:26;;;;;;;2.60;1.60;;;;;;;21.79;44.34;102237.78;5028123;28;20521;-66
2023/10/17 09:33:53;;;;;;;1.83;1.50;;;;;;;21.78;44.23;102237.97;4992110;28;20041;-66
2023/10/17 09:36:19;;;;;;;1.38;1.27;;;;;;;21.82;44.08;102249.91;5021085;28;20168;-66
2023/10/17 09:38:46;;;;;;;2.33;1.50;;;;;;;21.81;44.30;102253.53;5005985;28;20037;-66
2023/10/17 09:41:19;;;;;;;1.55;1.38;;;;;;;21.82;43.99;102256.03;5008270;28;20053;-66
2023/10/17 09:43:53;;;;;;;2.85;1.40;;;;;;;21.82;44.37;102256.03;4999165;28;20045;-66
2023/10/17 09:46:25;;;;;;;1.55;1.45;;;;;;;21.83;44.29;102257.69;5028563;28;20115;-66
2023/10/17 09:48:52;;;;;;;2.75;1.70;;;;;;;21.83;44.36;102259.50;5023845;28;20045;-66
2023/10/17 09:51:20;;;;;;;1.98;1.58;;;;;;;21.80;44.13;102263.31;5024165;28;20040;-66
2023/10/17 09:53:55;;;;;;;1.63;1.23;;;;;;;21.82;44.42;102261.34;4992506;28;20034;-65
2023/10/17 09:56:30;;;;;;;1.98;1.50;;;;;;;21.75;44.49;102249.72;5030387;28;20041;-66
2023/10/17 09:59:24;;;;;;;1.75;1.63;;;;;;;21.80;44.11;102258.00;4989386;28;20047;-66
2023/10/17 10:01:50;;;;;;;1.77;1.48;;;;;;;21.81;44.20;102249.06;4991049;28;20950;-66
2023/10/17 10:04:20;;;;;;;1.52;1.40;;;;;;;21.80;44.11;102246.56;5019862;28;20156;-66
2023/10/17 10:06:46;;;;;;;2.28;1.77;;;;;;;21.81;44.25;102254.38;4992957;28;20505;-65
2023/10/17 10:09:14;;;;;;;1.63;1.33;;;;;;;21.82;44.26;102252.56;5008310;28;20144;-65
2023/10/17 10:11:48;;;;;;;1.63;1.45;;;;;;;21.82;44.27;102258.69;5017861;28;20964;-66
2023/10/17 10:14:15;;;;;;;1.63;1.50;;;;;;;21.81;44.04;102258.84;5025616;28;20048;-66
2023/10/17 10:17:03;;;;;;;2.22;1.58;;;;;;;21.82;43.98;102255.19;5010842;28;20080;-66
2023/10/17 10:19:40;;;;;;;2.22;1.45;;;;;;;21.84;44.46;102248.75;5018910;28;20523;-66
2023/10/17 10:22:07;;;;;;;2.40;1.60;;;;;;;21.78;44.44;102244.09;4989098;28;20122;-67
2023/10/17 10:24:36;;;;;;;1.83;1.35;;;;;;;21.68;44.84;102232.75;5027314;28;20037;-69
2023/10/17 10:27:24;;;;;;;2.42;1.50;;;;;;;21.79;44.62;102251.06;4989331;28;20709;-69
2023/10/17 10:29:52;;;;;;;2.17;1.33;;;;;;;21.69;44.88;102243.19;5028193;28;20521;-67
2023/10/17 10:32:29;;;;;;;2.00;1.35;;;;;;;21.64;45.36;102231.41;5025677;28;20045;-67
2023/10/17 10:34:55;;;;;;;1.95;1.27;;;;;;;21.65;44.82;102236.56;5019297;28;20148;-67
2023/10/17 10:37:21;;;;;;;2.22;1.50;;;;;;;21.63;45.17;102229.75;5027029;28;20053;-67
2023/10/17 10:40:16;;;;;;;3.33;1.48;;;;;;;21.60;45.21;102227.44;5022192;28;20040;-68
2023/10/17 10:42:50;;;;;;;1.45;1.30;;;;;;;21.57;45.10;102227.75;5022648;28;20306;-67
2023/10/17 10:45:35;;;;;;;1.60;1.40;;;;;;;21.56;45.06;102223.44;5018300;28;20082;-68
2023/10/17 10:48:14;;;;;;;1.90;1.45;;;;;;;21.53;45.15;102226.38;5024852;28;20121;-68
2023/10/17 10:50:42;;;;;;;2.80;1.75;;;;;;;21.54;45.09;102214.78;5024960;28;20044;-68
2023/10/17 10:53:31;;;;;;;1.95;1.42;;;;;;;21.51;45.39;102210.63;5015539;28;20442;-68
2023/10/17 10:56:11;;;;;;;1.55;1.35;;;;;;;21.52;45.08;102212.28;5016139;28;20030;-68
2023/10/17 10:58:55;;;;;;;;;;;;;;;21.49;44.97;102207.31;5023760;28;20034;-68
2023/10/17 11:01:25;;;;;;;2.22;1.48;;;;;;;21.48;45.35;102204.81;5022984;28;21895;-68
2023/10/17 11:03:52;;;;;;;2.47;1.37;;;;;;;21.49;45.02;102203.84;5017965;28;20041;-67
2023/10/17 11:06:23;;;;;;;1.42;1.33;;;;;;;21.48;45.17;102194.22;4997873;28;20045;-67
2023/10/17 11:08:49;;;;;;;2.42;1.40;;;;;;;21.44;45.35;102191.06;5023809;28;20621;-68
2023/10/17 11:11:15;;;;;;;1.80;1.30;;;;;;;21.42;45.16;102185.91;5029742;28;20121;-68
2023/10/17 11:13:48;;;;;;;1.73;1.33;;;;;;;21.46;45.42;102189.09;5025690;28;20159;-69
2023/10/17 11:16:21;;;;;;;3.05;1.38;;;;;;;21.45;45.38;102184.78;5020436;28;20048;-67
2023/10/17 11:18:47;;;;;;;1.55;1.23;;;;;;;21.41;45.05;102173.66;5022473;28;20040;-67
2023/10/17 11:21:17;;;;;;;3.13;1.50;;;;;;;21.42;45.24;102170.03;5020403;28;20079;-67
2023/10/17 11:23:50;;;;;;;1.08;0.98;;;;;;;21.37;45.31;102171.50;5017864;28;20050;-66
2023/10/17 11:26:23;;;;;;;1.45;1.20;;;;;;;21.43;45.31;102173.50;5019452;28;20034;-65
2023/10/17 11:28:51;;;;;;;1.60;1.38;;;;;;;21.42;45.51;102179.78;5018481;28;20059;-66
2023/10/17 11:31:24;;;;;;;1.80;1.27;;;;;;;21.37;45.25;102159.06;5020251;28;20491;-67
2023/10/17 11:34:04;;;;;;;1.38;1.20;;;;;;;21.41;45.13;102173.66;5017731;28;20037;-67
2023/10/17 11:36:36;;;;;;;1.50;1.25;;;;;;;21.42;45.40;102169.19;5019741;28;20127;-67
2023/10/17 11:39:05;;;;;;;2.70;1.25;;;;;;;21.41;45.44;102159.56;5022627;28;20045;-67
2023/10/17 11:41:38;;;;;;;1.65;1.45;;;;;;;21.40;45.35;102153.44;5023015;28;20037;-67
2023/10/17 11:44:05;;;;;;;2.85;1.63;;;;;;;21.44;45.33;102158.44;5022444;28;20033;-66
2023/10/17 11:46:32;;;;;;;1.33;1.08;;;;;;;21.39;45.10;102143.84;5021895;28;20117;-67
2023/10/17 11:49:32;;;;;;;1.05;1.02;;;;;;;21.41;45.21;102141.84;5023273;28;20049;-67
2023/10/17 11:52:04;;;;;;;1.38;1.27;;;;;;;21.41;45.22;102154.28;5019093;28;20199;-67
2023/10/17 11:54:31;;;;;;;1.40;1.27;;;;;;;21.41;45.21;102143.69;5028050;28;20040;-67
2023/10/17 11:57:12;;;;;;;1.98;1.45;;;;;;;21.42;45.23;102154.13;5019463;28;20045;-67
2023/10/17 11:59:38;;;;;;;1.45;1.13;;;;;;;21.42;45.24;102156.78;5025080;28;20046;-66
2023/10/17 12:02:04;;;;;;;1.50;1.27;;;;;;;21.43;44.99;102157.59;5021709;28;20126;-66
2023/10/17 12:04:29;;;;;;;1.52;1.23;;;;;;;21.44;44.88;102156.59;5025844;28;20053;-66
2023/10/17 12:06:55;;;;;;;1.40;1.13;;;;;;;21.39;45.08;102150.97;5027238;28;20040;-66
2023/10/17 12:09:23;;;;;;;1.75;1.08;;;;;;;21.46;45.09;102162.56;5024917;28;20034;-67
2023/10/17 12:11:51;;;;;;;1.23;1.13;;;;;;;21.45;45.00;102163.56;5027071;28;20048;-67
2023/10/17 12:14:21;;;;;;;1.42;1.20;;;;;;;21.45;44.97;102165.38;5022869;28;20888;-67
2023/10/17 12:16:53;;;;;;;1.73;1.30;;;;;;;21.46;44.90;102161.75;5027072;28;20033;-67
2023/10/17 12:19:26;;;;;;;1.10;1.05;;;;;;;21.47;45.29;102152.81;5026707;28;20102;-67
2023/10/17 12:21:53;;;;;;;2.33;1.40;;;;;;;21.27;45.22;102125.72;5024729;28;20768;-66
2023/10/17 12:24:21;;;;;;;2.03;1.30;;;;;;;21.44;45.05;102156.59;5025184;28;20044;-68
2023/10/17 12:26:49;;;;;;;1.15;1.05;;;;;;;21.44;45.02;102156.59;5024788;28;20037;-67
2023/10/17 12:29:15;;;;;;;1.52;1.30;;;;;;;21.44;45.03;102159.25;5021943;28;20729;-66
2023/10/17 12:31:41;;;;;;;1.52;1.08;;;;;;;21.45;45.12;102158.28;5025710;28;20033;-66
2023/10/17 12:34:07;;;;;;;2.20;1.45;;;;;;;21.43;45.20;102152.28;5020870;28;20056;-68
2023/10/17 12:36:37;;;;;;;1.02;0.95;;;;;;;21.39;44.89;102137.72;5021489;28;20506;-68
2023/10/17 12:39:03;;;;;;;1.20;1.10;;;;;;;21.41;45.01;102130.44;5023862;28;20042;-67
2023/10/17 12:41:30;;;;;;;1.20;1.05;;;;;;;21.42;44.88;102143.53;5026035;28;20498;-66
2023/10/17 12:43:55;;;;;;;2.80;1.40;;;;;;;21.42;45.01;102137.38;5025369;28;20091;-66
2023/10/17 12:46:21;;;;;;;1.83;1.30;;;;;;;21.37;45.10;102126.44;5022247;28;20041;-67
2023/10/17 12:48:47;;;;;;;1.90;1.35;;;;;;;21.40;45.00;102120.81;5008849;28;20032;-68
2023/10/17 12:51:13;;;;;;;0.80;0.80;;;;;;;21.42;45.12;102132.91;5029175;28;20042;-69
2023/10/17 12:53:38;;;;;;;1.75;1.30;;;;;;;21.39;44.94;102133.25;5029403;28;20072;-68
2023/10/17 12:56:05;;;;;;;1.15;1.05;;;;;;;21.32;44.91;102112.81;5021637;28;20034;-69
2023/10/17 12:58:32;;;;;;;1.38;1.10;;;;;;;21.41;45.16;102131.25;5027290;28;20065;-68
2023/10/17 13:00:58;;;;;;;1.98;1.40;;;;;;;21.39;45.06;102120.00;5026641;28;20092;-66
2023/10/17 13:03:25;;;;;;;1.23;1.13;;;;;;;21.37;44.79;102115.84;5030791;28;20523;-67
2023/10/17 13:05:51;;;;;;;1.92;1.33;;;;;;;21.39;44.98;102112.03;5036554;28;20095;-67
2023/10/17 13:08:17;;;;;;;1.33;1.13;;;;;;;21.40;45.22;102107.56;5032173;28;20049;-67
2023/10/17 13:10:43;;;;;;;1.52;1.20;;;;;;;21.38;45.37;102106.91;5018361;28;20484;-66
2023/10/17 13:13:10;;;;;;;2.47;1.42;;;;;;;21.40;45.09;102108.41;5020767;28;20033;-66
2023/10/17 13:15:37;;;;;;;1.08;1.00;;;;;;;21.39;45.01;102101.44;5022729;28;20055;-66
2023/10/17 13:18:06;;;;;;;1.75;1.00;;;;;;;21.39;45.16;102092.66;5023696;28;20699;-66
2023/10/17 13:20:32;;;;;;;1.75;1.20;;;;;;;21.32;45.06;102079.19;5016699;28;20052;-67
2023/10/17 13:23:03;;;;;;;0.90;0.90;;;;;;;21.39;45.22;102072.28;5024177;28;20504;-67
2023/10/17 13:25:36;;;;;;;1.45;1.35;;;;;;;21.41;45.04;102077.44;5026074;28;20044;-68
2023/10/17 13:28:03;;;;;;;1.20;1.10;;;;;;;21.37;45.05;102071.63;5022875;28;20040;-67
2023/10/17 13:30:28;;;;;;;1.38;1.25;;;;;;;21.38;45.01;102070.63;5022937;28;20728;-67
2023/10/17 13:32:54;;;;;;;1.45;1.35;;;;;;;21.36;44.86;102067.31;5026434;28;20040;-67
2023/10/17 13:35:23;;;;;;;1.45;1.20;;;;;;;21.38;45.21;102064.50;5024089;28;20041;-67
2023/10/17 13:37:52;;;;;;;1.40;1.30;;;;;;;21.33;44.90;102066.78;5021693;28;20580;-67
2023/10/17 13:40:22;;;;;;;1.60;1.20;;;;;;;21.35;44.96;102060.34;5022896;28;20049;-67
2023/10/17 13:42:50;;;;;;;1.10;1.00;;;;;;;21.34;45.00;102071.91;5029831;28;20633;-67
2023/10/17 13:45:17;;;;;;;1.65;1.25;;;;;;;21.37;44.81;102063.69;5022107;28;20059;-67
2023/10/17 13:47:43;;;;;;;1.75;1.45;;;;;;;21.36;44.94;102056.72;5023927;28;20057;-66
2023/10/17 13:50:15;;;;;;;1.50;1.30;;;;;;;21.32;45.16;102057.19;5021034;28;20061;-66
2023/10/17 13:52:42;;;;;;;1.67;1.30;;;;;;;21.32;45.07;102060.66;5017197;28;20047;-67
2023/10/17 13:55:11;;;;;;;1.45;1.25;;;;;;;21.27;45.27;102052.38;5019164;28;20041;-65
2023/10/17 13:57:38;;;;;;;1.60;1.20;;;;;;;21.30;44.99;102048.56;5021642;28;20447;-67
2023/10/17 14:00:09;;;;;;;1.23;1.13;;;;;;;21.32;44.98;102050.06;5017659;28;20046;-67
2023/10/17 14:02:35;;;;;;;1.17;1.08;;;;;;;21.28;45.07;102026.69;5020871;28;20060;-65
2023/10/17 14:05:01;;;;;;;1.30;1.20;;;;;;;21.54;44.82;102043.34;5021784;28;20076;-67
2023/10/17 14:07:27;;;;;;;1.40;1.00;;;;;;;21.75;44.35;102040.25;5016762;28;20103;-67
2023/10/17 14:09:55;;;;;;;1.40;1.25;;;;;;;21.94;44.15;102039.13;5024984;28;20032;-67
2023/10/17 14:12:23;;;;;;;1.95;1.20;;;;;;;21.94;43.82;102032.00;5027132;28;20406;-67
2023/10/17 14:14:50;;;;;;;0.80;0.80;;;;;;;21.90;44.09;102035.97;5026547;28;20038;-66